Airfield :
LOGIN :

Register | Disclaimer

   EN    FR    IT 

 










Legend :    VFR   Marginal VFR   IFR   Intensive IFR   Very Intensive IFR
Visi :
Ceiling :
>= 8 km
>= 3000ft
5 to 8 km
1000 to 3000 ft
1500m to 5 km
500 to 1000 ft
800 to 1500m
200 to 500 ft
< 800m
< 200 ft
Symbols :   Thunderstorms  Fog  Heavy snow  Heavy precipitations  Wind > 20 kt
SIGMETs :     Misc.  Thunderstorms  Icing  Turbulence  Mountain Waves  Volcanic Ashes







- Airport Elevation : 144 ft
- IATA code : PGF
- Download approach charts


LFMP - Perpignan

CURRENT METAR :
  • 171400Z AUTO 32010KT 280V030 9999 FEW084/// 33/12 Q1013 NOSIG

EXPIRED METARs :
  • 171330Z AUTO 28004KT 210V350 9999 SCT084/// 33/12 Q1013 NOSIG
  • 171300Z AUTO 30007KT 250V360 9999 NCD 32/12 Q1013 TEMPO 11010KT
  • 171230Z AUTO 28004KT 180V330 9999 NCD 32/11 Q1013 TEMPO 11010KT
  • 171200Z AUTO 35006KT 300V040 9999 NCD 32/11 Q1013 TEMPO 11010KT
  • 171130Z AUTO 36008KT 300V040 9999 NCD 32/12 Q1013 TEMPO 11010KT

TAF TAF LFMP
Valid from the 17 at 09:00 until the 18 at 09:00 UTC


170800Z 1709/1809 31010KT CAVOK
TEMPO 1711/1714 11010KT
BECMG 1723/1801 31020G30KT
ATIS : +33 4 68 63 75 12
No reported NOTAMs for that airfield.



MET'MAP, your aeronautical weather chart ! - Copyright ORBIFLY December 2007 - Disclaimer

ORBIFLY MET'MAP TEAM :

Programming & Development : Alexandra Zaïnal
Concept & Development : Baudouin d'Aumeries
Co-Development & Prog : Marc-Olivier Méhu
Technical & hardware support : Manuel Goepfert

Contact : metmap@orbifly.com




SOURCES & CREDITS :

   NOAA